createdAt,value
2018-11-22T00:01:07.910Z,98203.78
2018-11-22T00:03:43.418Z,98199.64
2018-11-22T00:06:18.482Z,98205.45
2018-11-22T00:08:53.383Z,98210.05
2018-11-22T00:11:28.437Z,98210.05
2018-11-22T00:14:03.486Z,98204.38
2018-11-22T00:16:38.725Z,98204.34
2018-11-22T00:19:13.714Z,98200.93
2018-11-22T00:21:48.407Z,98203.19
2018-11-22T00:24:23.284Z,98205.93
2018-11-22T00:26:58.318Z,98206.11
2018-11-22T00:29:33.283Z,98204.38
2018-11-22T00:32:08.297Z,98204.75
2018-11-22T00:34:42.891Z,98206.63
2018-11-22T00:37:17.331Z,98206.92
2018-11-22T00:39:52.082Z,98208.44
2018-11-22T00:42:26.916Z,98209.37
2018-11-22T00:44:59.867Z,98207.78
2018-11-22T00:47:37.529Z,98209.81
2018-11-22T00:50:12.286Z,98204.97
2018-11-22T00:52:53.081Z,98210.22
2018-11-22T00:55:29.103Z,98217.19
2018-11-22T00:58:04.052Z,98214.33
2018-11-22T01:00:39.515Z,98211.19
2018-11-22T01:03:14.278Z,98212.55
2018-11-22T01:05:49.284Z,98212.55
2018-11-22T01:08:24.285Z,98218.84
2018-11-22T01:10:59.142Z,98220.30
2018-11-22T01:13:33.791Z,98229.92
2018-11-22T01:16:08.779Z,98223.74
2018-11-22T01:18:43.458Z,98214.93
2018-11-22T01:21:16.276Z,98213.56
2018-11-22T01:23:50.912Z,98220.04
2018-11-22T01:26:25.426Z,98221.23
2018-11-22T01:28:59.954Z,98214.63
2018-11-22T01:31:34.486Z,98215.70
2018-11-22T01:34:09.374Z,98208.48
2018-11-22T01:36:43.949Z,98208.48
2018-11-22T01:39:18.736Z,98208.86
2018-11-22T01:41:53.295Z,98196.53
2018-11-22T01:44:28.387Z,98196.53
2018-11-22T01:49:29.452Z,98205.11
2018-11-22T01:52:04.022Z,98201.00
2018-11-22T01:54:38.593Z,98201.41
2018-11-22T01:57:13.285Z,98200.16
2018-11-22T01:59:48.281Z,98199.48
2018-11-22T02:02:21.286Z,98206.22
2018-11-22T02:04:55.957Z,98208.00
2018-11-22T02:07:30.905Z,98203.74
2018-11-22T02:10:05.402Z,98203.74
2018-11-22T02:12:56.971Z,98211.34
2018-11-22T02:15:32.292Z,98207.48
2018-11-22T02:18:06.894Z,98211.23
2018-11-22T02:20:42.140Z,98211.82
2018-11-22T02:23:17.086Z,98210.52
2018-11-22T02:25:52.272Z,98209.05
2018-11-22T02:28:26.796Z,98208.67
2018-11-22T02:31:01.290Z,98210.70
2018-11-22T02:33:35.948Z,98210.70
2018-11-22T02:36:10.388Z,98205.64
2018-11-22T02:38:44.952Z,98201.00
2018-11-22T02:41:19.445Z,98206.59
2018-11-22T02:43:54.286Z,98206.63
2018-11-22T02:46:27.128Z,98210.11
2018-11-22T02:49:01.951Z,98210.29
2018-11-22T02:51:36.964Z,98212.84
2018-11-22T02:54:11.922Z,98211.30
2018-11-22T02:56:46.456Z,98211.30
2018-11-22T02:59:20.953Z,98210.87
2018-11-22T03:01:55.560Z,98210.87
2018-11-22T03:04:30.083Z,98211.66
2018-11-22T03:07:05.171Z,98206.33
2018-11-22T03:09:39.710Z,98212.95
2018-11-22T03:12:15.281Z,98216.66
2018-11-22T03:14:50.113Z,98216.66
2018-11-22T03:17:24.799Z,98212.95
2018-11-22T03:19:59.754Z,98215.52
2018-11-22T03:22:34.297Z,98209.25
2018-11-22T03:25:10.382Z,98209.25
2018-11-22T03:27:51.460Z,98213.03
2018-11-22T03:30:26.748Z,98211.48
2018-11-22T03:33:02.415Z,98212.07
2018-11-22T03:35:37.448Z,98205.92
2018-11-22T03:38:12.148Z,98205.62
2018-11-22T03:40:46.961Z,98200.31
2018-11-22T03:43:25.301Z,98202.17
2018-11-22T03:45:59.972Z,98207.29
2018-11-22T03:48:34.691Z,98209.03
2018-11-22T03:51:10.123Z,98204.91
2018-11-22T03:53:44.497Z,98207.47
2018-11-22T03:56:17.305Z,98217.25
2018-11-22T03:58:52.338Z,98211.33
2018-11-22T04:01:26.962Z,98211.33
2018-11-22T04:04:01.567Z,98215.98
2018-11-22T04:06:36.330Z,98220.33
2018-11-22T04:09:15.444Z,98212.41
2018-11-22T04:11:48.293Z,98212.41
2018-11-22T04:14:22.922Z,98220.59
2018-11-22T04:16:57.802Z,98224.33
2018-11-22T04:19:30.343Z,98211.48
2018-11-22T04:22:03.076Z,98211.48
2018-11-22T04:24:37.509Z,98220.77
2018-11-22T04:27:12.340Z,98224.10
2018-11-22T04:29:46.961Z,98222.29
2018-11-22T04:32:21.450Z,98222.06
2018-11-22T04:34:56.322Z,98223.06
2018-11-22T04:37:30.965Z,98223.06
2018-11-22T04:40:05.710Z,98220.69
2018-11-22T04:42:40.586Z,98221.95
2018-11-22T04:45:15.412Z,98221.95
2018-11-22T04:48:08.486Z,98227.06
2018-11-22T04:50:43.317Z,98223.99
2018-11-22T04:53:17.955Z,98220.22
2018-11-22T04:55:52.514Z,98220.22
2018-11-22T04:58:25.288Z,98225.81
2018-11-22T05:00:58.292Z,98219.98
2018-11-22T05:03:33.283Z,98227.17
2018-11-22T05:06:08.297Z,98220.59
2018-11-22T05:08:43.352Z,98223.98
2018-11-22T05:11:18.088Z,98222.42
2018-11-22T05:13:52.541Z,98219.90
2018-11-22T05:16:28.399Z,98221.81
2018-11-22T05:19:03.307Z,98208.94
2018-11-22T05:21:36.115Z,98208.94
2018-11-22T05:24:11.114Z,98220.45
2018-11-22T05:26:45.488Z,98221.97
2018-11-22T05:29:20.331Z,98219.41
2018-11-22T05:31:55.298Z,98219.41
2018-11-22T05:34:29.966Z,98217.40
2018-11-22T05:37:04.963Z,98220.92
2018-11-22T05:39:39.377Z,98215.59
2018-11-22T05:42:12.092Z,98220.97
2018-11-22T05:44:46.644Z,98220.19
2018-11-22T05:47:21.292Z,98220.27
2018-11-22T05:49:55.790Z,98221.64
2018-11-22T05:52:30.532Z,98228.31
2018-11-22T05:55:04.989Z,98228.72
2018-11-22T05:57:40.299Z,98222.77
2018-11-22T06:00:26.288Z,98217.83
2018-11-22T06:03:06.565Z,98217.83
2018-11-22T06:05:41.393Z,98224.73
2018-11-22T06:08:14.126Z,98224.73
2018-11-22T06:10:49.338Z,98233.27
2018-11-22T06:13:22.295Z,98236.02
2018-11-22T06:15:56.668Z,98239.45
2018-11-22T06:18:31.495Z,98240.87
2018-11-22T06:21:04.452Z,98240.28
2018-11-22T06:23:39.299Z,98235.58
2018-11-22T06:26:12.308Z,98235.58
2018-11-22T06:28:47.297Z,98245.27
2018-11-22T06:31:22.292Z,98251.38
2018-11-22T06:33:58.295Z,98255.23
2018-11-22T06:36:33.335Z,98250.23
2018-11-22T06:39:06.382Z,98253.98
2018-11-22T06:41:41.490Z,98253.98
2018-11-22T06:44:14.307Z,98260.02
2018-11-22T06:46:47.310Z,98271.21
2018-11-22T06:49:22.322Z,98264.02
2018-11-22T06:51:58.336Z,98272.06
2018-11-22T06:54:33.311Z,98277.84
2018-11-22T06:57:08.301Z,98276.29
2018-11-22T06:59:41.290Z,98280.10
2018-11-22T07:02:14.294Z,98280.10
2018-11-22T07:04:47.297Z,98279.44
2018-11-22T07:07:20.304Z,98286.11
2018-11-22T07:09:53.501Z,98284.92
2018-11-22T07:12:28.433Z,98280.10
2018-11-22T07:15:01.303Z,98282.18
2018-11-22T07:17:34.399Z,98282.18
2018-11-22T07:20:14.462Z,98284.52
2018-11-22T07:22:50.298Z,98283.66
2018-11-22T07:25:24.437Z,98281.11
2018-11-22T07:28:00.161Z,98284.88
2018-11-22T07:30:42.455Z,98284.88
2018-11-22T07:33:11.917Z,98282.91
2018-11-22T07:35:46.955Z,98280.59
2018-11-22T07:38:22.290Z,98285.59
2018-11-22T07:40:55.306Z,98287.91
2018-11-22T07:43:28.451Z,98287.91
2018-11-22T07:46:03.301Z,98285.87
2018-11-22T07:48:36.511Z,98285.87
2018-11-22T07:51:11.757Z,98288.63
2018-11-22T07:53:46.964Z,98288.63
2018-11-22T07:56:24.458Z,98287.62
2018-11-22T07:58:59.314Z,98282.13
2018-11-22T08:01:34.462Z,98284.88
2018-11-22T08:04:07.300Z,98284.88
2018-11-22T08:06:40.284Z,98290.28
2018-11-22T08:09:13.299Z,98291.88
2018-11-22T08:11:46.293Z,98289.81
2018-11-22T08:14:19.290Z,98296.84
2018-11-22T08:16:52.300Z,98297.21
2018-11-22T08:19:56.336Z,98296.77
2018-11-22T08:22:31.300Z,98298.32
2018-11-22T08:25:06.394Z,98301.61
2018-11-22T08:27:41.763Z,98302.80
2018-11-22T08:30:17.909Z,98294.31
2018-11-22T08:32:54.820Z,98302.31
2018-11-22T08:35:29.638Z,98297.68
2018-11-22T08:38:06.327Z,98296.65
2018-11-22T08:40:41.447Z,98306.23
2018-11-22T08:43:22.378Z,98306.52
2018-11-22T08:45:57.418Z,98307.66
2018-11-22T08:48:32.308Z,98310.69
2018-11-22T08:51:07.307Z,98321.23
2018-11-22T08:53:40.297Z,98321.23
2018-11-22T08:56:13.293Z,98325.53
2018-11-22T08:58:46.381Z,98325.19
2018-11-22T09:01:21.309Z,98325.19
2018-11-22T09:03:56.295Z,98328.11
2018-11-22T09:06:29.296Z,98327.34
2018-11-22T09:09:04.417Z,98328.52
2018-11-22T09:11:39.298Z,98326.61
2018-11-22T09:14:12.364Z,98329.63
2018-11-22T09:16:45.291Z,98325.20
2018-11-22T09:19:19.291Z,98328.21
2018-11-22T09:21:52.441Z,98312.10
2018-11-22T09:24:27.501Z,98302.78
2018-11-22T09:27:02.293Z,98311.03
2018-11-22T09:29:39.564Z,98311.03
2018-11-22T09:32:12.590Z,98322.52
2018-11-22T09:34:47.415Z,98324.64
2018-11-22T09:37:22.296Z,98324.26
2018-11-22T09:39:55.292Z,98324.26
2018-11-22T09:42:28.294Z,98320.08
2018-11-22T09:45:03.406Z,98325.50
2018-11-22T09:47:38.376Z,98319.42
2018-11-22T09:50:14.386Z,98319.42
2018-11-22T09:52:48.302Z,98317.02
2018-11-22T09:55:23.335Z,98319.41
2018-11-22T09:57:58.737Z,98318.16
2018-11-22T10:00:33.412Z,98303.37
2018-11-22T10:03:09.479Z,98303.37
2018-11-22T10:05:44.611Z,98314.03
2018-11-22T10:08:26.800Z,98324.75
2018-11-22T10:11:01.797Z,98324.75
2018-11-22T10:13:36.743Z,98318.90
2018-11-22T10:16:11.577Z,98326.64
2018-11-22T10:18:48.561Z,98313.45
2018-11-22T10:21:23.370Z,98314.05
2018-11-22T10:23:58.367Z,98314.05
2018-11-22T10:26:33.401Z,98310.52
2018-11-22T10:29:08.408Z,98316.02
2018-11-22T10:31:43.808Z,98316.02
2018-11-22T10:34:18.944Z,98316.80
2018-11-22T10:36:56.262Z,98316.80
2018-11-22T10:39:31.346Z,98315.69
2018-11-22T10:42:06.318Z,98316.41
2018-11-22T10:44:41.145Z,98321.36
2018-11-22T10:47:16.300Z,98321.36
2018-11-22T10:49:51.520Z,98323.75
2018-11-22T10:52:26.306Z,98324.11
2018-11-22T10:55:01.293Z,98321.12
2018-11-22T10:57:34.289Z,98314.31
2018-11-22T11:00:10.298Z,98314.91
2018-11-22T11:03:00.594Z,98314.91
2018-11-22T11:05:53.299Z,98316.41
2018-11-22T11:08:30.320Z,98316.28
2018-11-22T11:11:05.455Z,98316.88
2018-11-22T11:13:40.302Z,98313.98
2018-11-22T11:16:13.278Z,98308.69
2018-11-22T11:18:48.383Z,98308.77
2018-11-22T11:21:21.678Z,98310.05
2018-11-22T11:23:56.294Z,98303.44
2018-11-22T11:26:31.291Z,98303.44
2018-11-22T11:29:12.581Z,98308.00
2018-11-22T11:31:42.963Z,98300.19
2018-11-22T11:34:18.301Z,98301.30
2018-11-22T11:36:51.464Z,98304.75
2018-11-22T11:39:26.419Z,98300.70
2018-11-22T11:42:01.309Z,98309.20
2018-11-22T11:44:36.295Z,98297.09
2018-11-22T11:47:09.470Z,98300.09
2018-11-22T11:49:44.298Z,98297.80
2018-11-22T11:52:19.311Z,98290.65
2018-11-22T11:54:52.290Z,98299.41
2018-11-22T11:57:25.287Z,98291.88
2018-11-22T12:00:00.306Z,98291.07
2018-11-22T12:02:33.285Z,98294.08
2018-11-22T12:05:06.298Z,98289.78
2018-11-22T12:07:41.894Z,98288.83
2018-11-22T12:10:21.955Z,98289.36
2018-11-22T12:12:57.285Z,98289.95
2018-11-22T12:15:30.303Z,98290.80
2018-11-22T12:18:03.341Z,98284.95
2018-11-22T12:20:36.457Z,98291.83
2018-11-22T12:23:11.713Z,98291.42
2018-11-22T12:25:46.797Z,98291.42
2018-11-22T12:28:23.653Z,98288.77
2018-11-22T12:31:06.111Z,98289.42
2018-11-22T12:33:42.524Z,98279.97
2018-11-22T12:36:26.584Z,98279.97
2018-11-22T12:39:01.291Z,98280.43
2018-11-22T12:41:36.425Z,98287.03
2018-11-22T12:44:11.736Z,98282.90
2018-11-22T12:46:46.959Z,98285.37
2018-11-22T12:49:24.377Z,98286.15
2018-11-22T12:51:59.442Z,98282.90
2018-11-22T12:54:34.715Z,98278.08
2018-11-22T12:57:10.741Z,98278.08
2018-11-22T12:59:45.949Z,98287.20
2018-11-22T13:02:23.425Z,98279.65
2018-11-22T13:04:56.307Z,98284.72
2018-11-22T13:07:31.286Z,98284.05
2018-11-22T13:10:04.286Z,98290.39
2018-11-22T13:12:37.146Z,98281.11
2018-11-22T13:15:15.330Z,98281.53
2018-11-22T13:17:50.284Z,98281.53
2018-11-22T13:20:25.450Z,98284.56
2018-11-22T13:23:00.481Z,98285.83
2018-11-22T13:25:33.283Z,98286.52
2018-11-22T13:28:06.313Z,98288.00
2018-11-22T13:30:39.419Z,98281.80
2018-11-22T13:33:15.491Z,98278.55
2018-11-22T13:35:50.415Z,98278.55
2018-11-22T13:38:25.384Z,98287.22
2018-11-22T13:41:00.285Z,98285.66
2018-11-22T13:43:34.309Z,98285.66
2018-11-22T13:46:07.124Z,98286.27
2018-11-22T13:51:08.449Z,98292.97
2018-11-22T13:53:41.374Z,98289.97
2018-11-22T13:56:15.958Z,98284.28
2018-11-22T13:58:51.281Z,98277.48
2018-11-22T14:01:24.348Z,98277.48
2018-11-22T14:03:57.289Z,98289.88
2018-11-22T14:06:30.278Z,98292.10
2018-11-22T14:09:05.455Z,98290.80
2018-11-22T14:11:40.602Z,98288.66
2018-11-22T14:14:15.438Z,98285.20
2018-11-22T14:16:50.741Z,98294.31
2018-11-22T14:19:25.281Z,98291.80
2018-11-22T14:21:58.284Z,98291.80
2018-11-22T14:24:33.343Z,98292.34
2018-11-22T14:27:08.398Z,98291.47
2018-11-22T14:29:43.330Z,98289.05
2018-11-22T14:32:16.291Z,98291.63
2018-11-22T14:34:51.282Z,98291.63
2018-11-22T14:37:24.286Z,98281.23
2018-11-22T14:39:59.399Z,98291.30
2018-11-22T14:42:34.386Z,98285.98
2018-11-22T14:45:07.293Z,98285.02
2018-11-22T14:47:40.284Z,98285.44
2018-11-22T14:50:26.957Z,98279.70
2018-11-22T14:53:23.365Z,98284.75
2018-11-22T14:55:58.473Z,98285.53
2018-11-22T14:58:35.956Z,98284.93
2018-11-22T15:01:11.430Z,98286.81
2018-11-22T15:03:46.311Z,98282.36
2018-11-22T15:06:19.287Z,98282.36
2018-11-22T15:08:54.425Z,98279.08
2018-11-22T15:11:29.428Z,98281.65
2018-11-22T15:14:04.285Z,98282.19
2018-11-22T15:16:37.288Z,98284.84
2018-11-22T15:19:12.436Z,98284.06
2018-11-22T15:21:47.289Z,98284.06
2018-11-22T15:24:22.294Z,98278.91
2018-11-22T15:26:57.282Z,98287.14
2018-11-22T15:29:32.284Z,98290.30
2018-11-22T15:32:05.296Z,98286.30
2018-11-22T15:34:40.331Z,98288.61
2018-11-22T15:37:15.329Z,98293.83
2018-11-22T15:39:50.305Z,98292.72
2018-11-22T15:42:23.293Z,98296.67
2018-11-22T15:44:58.327Z,98301.70
2018-11-22T15:47:31.282Z,98301.70
2018-11-22T15:50:04.333Z,98297.95
2018-11-22T15:52:39.333Z,98298.45
2018-11-22T15:55:20.843Z,98296.91
2018-11-22T15:57:52.278Z,98299.56
2018-11-22T16:00:31.022Z,98305.83
2018-11-22T16:03:06.973Z,98304.27
2018-11-22T16:05:42.354Z,98306.24
2018-11-22T16:08:17.306Z,98307.88
2018-11-22T16:10:50.307Z,98310.05
2018-11-22T16:13:25.979Z,98311.66
2018-11-22T16:16:00.963Z,98314.13
2018-11-22T16:18:44.410Z,98315.00
2018-11-22T16:21:19.402Z,98315.17
2018-11-22T16:23:52.279Z,98321.17
2018-11-22T16:26:25.102Z,98315.89
2018-11-22T16:29:00.410Z,98317.00
2018-11-22T16:31:34.956Z,98321.20
2018-11-22T16:34:09.956Z,98318.64
2018-11-22T16:36:45.187Z,98322.77
2018-11-22T16:39:19.703Z,98326.21
2018-11-22T16:41:54.338Z,98326.21
2018-11-22T16:44:29.284Z,98329.09
2018-11-22T16:47:02.164Z,98325.84
2018-11-22T16:49:37.013Z,98318.94
2018-11-22T16:52:11.958Z,98318.44
2018-11-22T16:54:46.949Z,98319.30
2018-11-22T16:57:23.288Z,98328.72
2018-11-22T16:59:57.949Z,98333.52
2018-11-22T17:02:32.830Z,98330.49
2018-11-22T17:05:07.924Z,98326.11
2018-11-22T17:07:42.466Z,98326.92
2018-11-22T17:10:19.655Z,98324.36
2018-11-22T17:12:55.595Z,98326.14
2018-11-22T17:15:34.974Z,98326.14
2018-11-22T17:18:10.893Z,98328.97
2018-11-22T17:20:45.350Z,98327.28
2018-11-22T17:23:19.905Z,98330.73
2018-11-22T17:25:52.674Z,98330.36
2018-11-22T17:28:51.283Z,98332.20
2018-11-22T17:31:25.950Z,98332.20
2018-11-22T17:34:00.376Z,98334.30
2018-11-22T17:36:34.962Z,98326.34
2018-11-22T17:39:15.304Z,98326.34
2018-11-22T17:41:48.100Z,98326.67
2018-11-22T17:44:22.965Z,98323.23
2018-11-22T17:46:58.040Z,98323.23
2018-11-22T17:49:33.078Z,98321.86
2018-11-22T17:52:08.349Z,98321.86
2018-11-22T17:54:43.388Z,98323.83
2018-11-22T17:57:18.286Z,98320.11
2018-11-22T17:59:53.002Z,98322.72
2018-11-22T18:02:27.432Z,98322.72
2018-11-22T18:05:02.298Z,98319.07
2018-11-22T18:07:36.931Z,98319.07
2018-11-22T18:10:11.112Z,98328.80
2018-11-22T18:12:46.773Z,98319.97
2018-11-22T18:15:20.622Z,98320.84
2018-11-22T18:17:55.584Z,98316.73
2018-11-22T18:20:31.957Z,98319.34
2018-11-22T18:23:11.235Z,98319.52
2018-11-22T18:25:41.799Z,98317.97
2018-11-22T18:28:16.336Z,98321.76
2018-11-22T18:30:50.957Z,98321.76
2018-11-22T18:33:25.572Z,98315.77
2018-11-22T18:35:58.292Z,98318.80
2018-11-22T18:38:51.237Z,98316.78
2018-11-22T18:41:25.955Z,98312.98
2018-11-22T18:44:00.434Z,98318.60
2018-11-22T18:46:35.290Z,98321.17
2018-11-22T18:49:10.302Z,98321.17
2018-11-22T18:51:45.193Z,98319.61
2018-11-22T18:54:20.130Z,98320.80
2018-11-22T18:56:54.939Z,98326.66
2018-11-22T18:59:27.713Z,98322.45
2018-11-22T19:02:00.359Z,98324.88
2018-11-22T19:04:35.285Z,98324.88
2018-11-22T19:07:10.018Z,98321.18
2018-11-22T19:09:44.784Z,98320.41
2018-11-22T19:12:19.323Z,98315.86
2018-11-22T19:14:54.167Z,98315.86
2018-11-22T19:17:30.892Z,98320.39
2018-11-22T19:20:09.175Z,98320.39
2018-11-22T19:22:42.115Z,98317.70
2018-11-22T19:25:16.767Z,98315.81
2018-11-22T19:27:51.337Z,98316.44
2018-11-22T19:30:37.429Z,98318.05
2018-11-22T19:33:11.296Z,98318.05
2018-11-22T19:35:47.524Z,98320.17
2018-11-22T19:38:20.311Z,98323.55
2018-11-22T19:42:01.338Z,98319.91
2018-11-22T19:44:36.291Z,98315.38
2018-11-22T19:47:11.341Z,98317.86
2018-11-22T19:49:46.285Z,98317.86
2018-11-22T19:52:21.346Z,98323.40
2018-11-22T19:54:56.307Z,98324.36
2018-11-22T19:57:31.110Z,98324.36
2018-11-22T20:00:06.461Z,98335.95
2018-11-22T20:02:40.006Z,98319.10
2018-11-22T20:05:16.422Z,98319.10
2018-11-22T20:07:50.717Z,98324.57
2018-11-22T20:10:25.299Z,98335.52
2018-11-22T20:12:58.281Z,98339.45
2018-11-22T20:15:33.347Z,98333.03
2018-11-22T20:18:09.300Z,98338.05
2018-11-22T20:20:49.493Z,98330.72
2018-11-22T20:23:21.871Z,98342.12
2018-11-22T20:25:55.140Z,98336.97
2018-11-22T20:28:30.307Z,98347.53
2018-11-22T20:31:04.959Z,98344.42
2018-11-22T20:34:00.006Z,98342.89
2018-11-22T20:36:36.140Z,98342.72
2018-11-22T20:39:15.566Z,98339.19
2018-11-22T20:41:48.315Z,98348.31
2018-11-22T20:44:23.007Z,98348.00
2018-11-22T20:46:57.690Z,98343.57
2018-11-22T20:49:32.430Z,98342.98
2018-11-22T20:52:05.292Z,98344.34
2018-11-22T20:54:39.954Z,98350.62
2018-11-22T20:57:14.504Z,98347.77
2018-11-22T20:59:49.302Z,98351.03
2018-11-22T21:02:23.966Z,98351.03
2018-11-22T21:04:58.962Z,98351.26
2018-11-22T21:07:33.584Z,98348.95
2018-11-22T21:10:09.340Z,98344.66
2018-11-22T21:12:42.294Z,98344.66
2018-11-22T21:15:27.960Z,98352.17
2018-11-22T21:18:04.374Z,98350.22
2018-11-22T21:20:40.776Z,98350.22
2018-11-22T21:23:15.491Z,98350.77
2018-11-22T21:25:50.303Z,98348.02
2018-11-22T21:28:24.956Z,98348.02
2018-11-22T21:30:59.967Z,98360.53
2018-11-22T21:33:38.488Z,98364.38
2018-11-22T21:36:12.969Z,98358.89
2018-11-22T21:38:48.982Z,98361.39
2018-11-22T21:41:23.573Z,98363.13
2018-11-22T21:44:01.884Z,98357.45
2018-11-22T21:46:36.445Z,98366.67
2018-11-22T21:51:56.414Z,98366.33
2018-11-22T21:54:31.300Z,98363.82
2018-11-22T21:57:05.970Z,98363.82
2018-11-22T21:59:40.968Z,98363.61
2018-11-22T22:02:15.599Z,98367.47
2018-11-22T22:04:48.285Z,98366.38
2018-11-22T22:07:21.296Z,98371.09
2018-11-22T22:09:56.622Z,98368.74
2018-11-22T22:12:31.425Z,98367.23
2018-11-22T22:15:05.963Z,98364.23
2018-11-22T22:17:41.691Z,98364.23
2018-11-22T22:20:22.292Z,98370.45
2018-11-22T22:22:55.281Z,98373.22
2018-11-22T22:25:30.288Z,98373.22
2018-11-22T22:28:03.710Z,98378.19
2018-11-22T22:30:38.301Z,98379.12
2018-11-22T22:33:11.283Z,98379.12
2018-11-22T22:35:46.297Z,98375.95
2018-11-22T22:38:21.303Z,98375.44
2018-11-22T22:40:56.287Z,98376.55
2018-11-22T22:43:29.289Z,98379.44
2018-11-22T22:46:04.288Z,98381.45
2018-11-22T22:48:38.254Z,98372.41
2018-11-22T22:51:12.930Z,98373.81
2018-11-22T22:53:50.782Z,98371.33
2018-11-22T22:56:25.293Z,98369.91
2018-11-22T22:59:08.862Z,98363.35
2018-11-22T23:01:43.588Z,98366.59
2018-11-22T23:04:18.282Z,98371.41
2018-11-22T23:06:50.874Z,98367.47
2018-11-22T23:09:25.448Z,98371.46
2018-11-22T23:12:00.288Z,98366.15
2018-11-22T23:14:35.232Z,98369.54
2018-11-22T23:17:09.339Z,98373.84
2018-11-22T23:19:43.794Z,98368.33
2018-11-22T23:22:18.769Z,98369.75
2018-11-22T23:24:51.405Z,98377.78
2018-11-22T23:27:26.280Z,98371.70
2018-11-22T23:30:01.276Z,98371.70
2018-11-22T23:32:34.287Z,98370.58
2018-11-22T23:35:09.296Z,98370.09
2018-11-22T23:37:42.285Z,98371.88
2018-11-22T23:40:18.351Z,98359.47
2018-11-22T23:42:53.442Z,98359.47
2018-11-22T23:45:29.444Z,98360.66
2018-11-22T23:48:04.293Z,98366.48
2018-11-22T23:50:38.789Z,98366.48
2018-11-22T23:53:13.587Z,98366.35
2018-11-22T23:55:48.298Z,98364.91
2018-11-22T23:58:20.879Z,98364.91
